Terminal Aerodrome Forecast
Issued by NWS

Home | Current Version | Previous Version | Text Only | Print | Product List | Glossary On
Versions: 1 2 3 4 5 6 7 8 9 10 11 12 13
111
FTAK31 PAJN 251740
TAFAYA
TAF
PAYA 251740Z 2518/2618 10005KT P6SM BKN035 BKN060
     FM260000 VRB04KT P6SM SCT060
     FM261200 00000KT 3SM BCFG SCT003 SCT120
      AMD LTD TO CLD VIS AND WIND 2601/2609=

USA.gov is the U.S. government's official web portal to all federal, state and local government web resources and services.